createdAt,value
2016-09-21T00:02:27.785Z,1009.56
2016-09-21T00:17:31.894Z,1009.42
2016-09-21T00:32:29.775Z,1009.49
2016-09-21T00:47:33.901Z,1009.42
2016-09-21T01:02:27.785Z,1009.34
2016-09-21T01:17:27.791Z,1009.36
2016-09-21T01:32:27.792Z,1009.11
2016-09-21T01:47:27.799Z,1009.02
2016-09-21T02:02:34.021Z,1008.99
2016-09-21T02:17:29.913Z,1009.23
2016-09-21T02:32:27.813Z,1008.98
2016-09-21T02:47:31.907Z,1009.09
2016-09-21T03:02:29.907Z,1009.02
2016-09-21T03:17:29.915Z,1009.15
2016-09-21T03:32:29.934Z,1009.14
2016-09-21T03:47:29.934Z,1009.21
2016-09-21T04:02:27.823Z,1009.23
2016-09-21T04:17:29.866Z,1009.22
2016-09-21T04:32:27.814Z,1009.32
2016-09-21T04:47:27.824Z,1009.24
2016-09-21T05:02:27.821Z,1009.27
2016-09-21T05:17:29.937Z,1009.2
2016-09-21T05:32:29.941Z,1009.22
2016-09-21T05:47:29.950Z,1009.32
2016-09-21T06:02:27.829Z,1009.22
2016-09-21T06:17:27.831Z,1009.28
2016-09-21T06:32:27.829Z,1009.2
2016-09-21T06:47:29.950Z,1009.37
2016-09-21T07:02:29.944Z,1009.35
2016-09-21T07:17:29.844Z,1009.31
2016-09-21T07:32:27.839Z,1009.21
2016-09-21T07:47:27.839Z,1009.22
2016-09-21T08:02:27.844Z,1009.29
2016-09-21T08:17:27.842Z,1009.24
2016-09-21T08:32:27.846Z,1009.22
2016-09-21T08:47:29.970Z,1009.2
2016-09-21T09:02:27.857Z,1008.97
2016-09-21T09:17:27.855Z,1008.85
2016-09-21T09:32:31.873Z,1008.77
2016-09-21T09:47:34.076Z,1008.69
2016-09-21T10:02:38.383Z,1008.63
2016-09-21T10:17:32.078Z,1008.53
2016-09-21T10:32:27.884Z,1008.37
2016-09-21T10:47:29.883Z,1008.44
2016-09-21T11:02:27.883Z,1008.35
2016-09-21T11:17:27.884Z,1008.37
2016-09-21T11:32:27.891Z,1008.38
2016-09-21T11:47:27.895Z,1008.32
2016-09-21T12:02:27.902Z,1008.44
2016-09-21T12:17:29.903Z,1008.37
2016-09-21T12:32:27.903Z,1008.25
2016-09-21T12:47:30.016Z,1008.28
2016-09-21T13:02:34.211Z,1008.33
2016-09-21T13:17:27.885Z,1008.2
2016-09-21T13:32:29.917Z,1008.22
2016-09-21T13:47:34.121Z,1008.23
2016-09-21T14:02:29.907Z,1008.22
2016-09-21T14:17:34.224Z,1008.07
2016-09-21T14:32:29.910Z,1007.9
2016-09-21T14:47:27.911Z,1007.87
2016-09-21T15:02:32.033Z,1007.97
2016-09-21T15:17:36.344Z,1008.1
2016-09-21T15:32:31.931Z,1007.94
2016-09-21T15:47:27.950Z,1007.96
2016-09-21T16:02:30.044Z,1008.02
2016-09-21T16:17:30.038Z,1007.98
2016-09-21T16:32:27.937Z,1008.03
2016-09-21T16:47:29.934Z,1008.19
2016-09-21T17:02:52.401Z,1008.14
2016-09-21T17:17:43.496Z,1008.25
2016-09-21T17:32:43.557Z,1008.44
2016-09-21T17:47:43.475Z,1008.45
2016-09-21T18:02:47.575Z,1008.55
2016-09-21T18:17:45.475Z,1008.62
2016-09-21T18:32:45.497Z,1008.72
2016-09-21T18:47:43.483Z,1008.78
2016-09-21T18:57:44.638Z,1008.76
2016-09-21T19:12:30.699Z,1008.83
2016-09-21T19:27:32.797Z,1009.05
2016-09-21T19:42:36.996Z,1009
2016-09-21T19:57:32.775Z,1009.1
2016-09-21T20:12:34.918Z,1009.27
2016-09-21T20:24:31.582Z,1009.28
2016-09-21T20:39:22.667Z,1009.35
2016-09-21T20:54:22.751Z,1009.37
2016-09-21T21:09:26.732Z,1009.41
2016-09-21T21:24:26.833Z,1009.57
2016-09-21T21:39:24.825Z,1009.59
2016-09-21T21:54:20.637Z,1009.58
2016-09-21T22:09:22.718Z,1009.52
2016-09-21T22:24:22.630Z,1009.68
2016-09-21T22:39:24.818Z,1009.69
2016-09-21T22:54:26.950Z,1009.6
2016-09-21T23:09:20.646Z,1009.58
2016-09-21T23:24:20.642Z,1009.79
2016-09-21T23:39:20.637Z,1009.71
2016-09-21T23:54:22.752Z,1009.77
